Time;durP1;ratioP1;P1;durP2;ratioP2;P2;SDS_P1;SDS_P2;PMS_P1;PMS_P2;Temp;Humidity;BMP_temperature;BMP_pressure;BME280_temperature;BME280_humidity;BME280_pressure;Samples;Min_cycle;Max_cycle;Signal;HPM_P1;HPM_P2
2022/08/25 00:01:33;;;;;;;22.35;18.83;;;;;;;20.55;89.21;101549.56;5022276;28;19920;-68
2022/08/25 00:04:00;;;;;;;21.05;18.73;;;;;;;20.44;89.15;101548.69;5021582;28;20248;-69
2022/08/25 00:06:25;;;;;;;19.97;17.87;;;;;;;20.43;89.49;101540.63;5028338;28;20032;-69
2022/08/25 00:08:50;;;;;;;23.83;19.17;;;;;;;20.38;89.49;101546.19;5059680;28;20013;-69
2022/08/25 00:11:21;;;;;;;23.98;19.60;;;;;;;20.34;89.73;101542.28;5062279;28;20450;-69
2022/08/25 00:13:50;;;;;;;22.70;17.73;;;;;;;20.31;89.51;101540.88;5061560;28;20059;-69
2022/08/25 00:16:17;;;;;;;21.42;19.13;;;;;;;20.28;89.92;101543.41;5061440;28;20035;-69
2022/08/25 00:18:46;;;;;;;24.43;18.77;;;;;;;20.27;89.29;101547.28;5043397;28;20296;-68
2022/08/25 00:21:13;;;;;;;21.70;19.33;;;;;;;20.17;89.85;101548.97;5061456;28;20021;-68
2022/08/25 00:23:38;;;;;;;23.75;20.75;;;;;;;20.10;90.49;101542.81;5060225;28;20064;-68
2022/08/25 00:26:04;;;;;;;23.75;19.25;;;;;;;20.11;90.79;101543.66;5028760;28;20118;-69
2022/08/25 00:28:29;;;;;;;23.10;19.05;;;;;;;20.08;90.35;101547.84;5021490;28;20171;-68
2022/08/25 00:30:55;;;;;;;25.88;20.10;;;;;;;20.06;90.80;101540.88;5021625;28;20029;-69
2022/08/25 00:33:21;;;;;;;23.02;20.63;;;;;;;20.09;90.75;101541.16;5021036;28;20033;-68
2022/08/25 00:35:46;;;;;;;27.10;21.35;;;;;;;20.06;90.67;101540.88;5021867;28;20584;-69
2022/08/25 00:38:12;;;;;;;23.58;20.00;;;;;;;20.03;90.53;101550.63;5020980;28;20022;-69
2022/08/25 00:40:39;;;;;;;22.50;19.17;;;;;;;20.04;90.88;101552.31;5020114;28;20145;-69
2022/08/25 00:43:05;;;;;;;23.77;21.38;;;;;;;19.98;91.08;101547.00;5021105;28;20036;-69
2022/08/25 00:45:32;;;;;;;24.92;20.88;;;;;;;19.97;91.15;101546.13;5021022;28;20014;-68
2022/08/25 00:47:57;;;;;;;24.10;21.05;;;;;;;19.92;91.21;101546.13;5021288;28;20037;-69
2022/08/25 00:50:24;;;;;;;24.38;20.52;;;;;;;19.87;91.35;101544.19;5020956;28;20021;-68
2022/08/25 00:52:53;;;;;;;23.73;21.00;;;;;;;19.80;91.80;101545.56;5021868;28;20036;-69
2022/08/25 00:55:24;;;;;;;24.48;20.08;;;;;;;19.81;91.57;101539.69;5020510;28;20032;-69
2022/08/25 00:57:57;;;;;;;23.92;20.55;;;;;;;19.79;91.26;101550.31;5021777;28;20029;-69
2022/08/25 01:00:44;;;;;;;22.23;19.75;;;;;;;19.82;90.93;101543.31;5025338;28;20033;-68
2022/08/25 01:03:10;;;;;;;25.50;20.63;;;;;;;19.75;91.13;101548.34;5020668;28;20694;-68
2022/08/25 01:05:37;;;;;;;30.10;20.85;;;;;;;19.73;91.18;101534.69;5029778;22;20745;-69
2022/08/25 01:08:05;;;;;;;22.33;19.42;;;;;;;19.71;91.16;101542.47;5005545;28;20034;-69
2022/08/25 01:10:32;;;;;;;24.63;20.67;;;;;;;19.67;90.72;101539.41;5002083;28;20491;-69
2022/08/25 01:13:05;;;;;;;25.63;20.05;;;;;;;19.65;91.17;101543.56;5002247;28;20113;-69
2022/08/25 01:15:32;;;;;;;29.27;20.55;;;;;;;19.56;91.66;101539.63;5002064;28;20026;-69
2022/08/25 01:17:57;;;;;;;25.97;20.73;;;;;;;19.55;91.56;101537.94;5002475;28;20046;-69
2022/08/25 01:20:26;;;;;;;24.35;20.02;;;;;;;19.53;91.45;101542.97;5002340;28;20026;-69
2022/08/25 01:22:52;;;;;;;24.40;20.60;;;;;;;19.47;91.81;101539.31;5002241;28;20084;-69
2022/08/25 01:25:33;;;;;;;25.05;20.27;;;;;;;19.53;91.51;101546.59;5001736;28;20030;-69
2022/08/25 01:27:58;;;;;;;26.60;22.05;;;;;;;19.48;91.54;101543.78;5004644;28;20038;-69
2022/08/25 01:30:24;;;;;;;26.10;21.90;;;;;;;19.52;90.83;101536.56;5006403;28;20030;-68
2022/08/25 01:32:50;;;;;;;27.90;22.80;;;;;;;19.43;90.95;101543.75;5006112;28;20033;-69
2022/08/25 01:35:15;;;;;;;29.05;23.15;;;;;;;19.50;91.19;101543.50;5006432;28;20026;-69
2022/08/25 01:37:41;;;;;;;32.85;24.23;;;;;;;19.49;89.89;101545.44;5006414;28;20802;-69
2022/08/25 01:40:07;;;;;;;28.80;24.05;;;;;;;19.50;90.21;101541.53;5004742;28;20487;-69
2022/08/25 01:42:52;;;;;;;29.77;23.77;;;;;;;19.59;88.78;101545.50;5016586;28;20039;-69
2022/08/25 01:45:17;;;;;;;25.83;22.73;;;;;;;19.54;88.62;101537.09;5007880;28;20076;-69
2022/08/25 01:47:43;;;;;;;30.48;23.15;;;;;;;19.54;89.05;101542.69;5025851;28;20049;-69
2022/08/25 01:50:08;;;;;;;28.52;23.67;;;;;;;19.54;87.70;101539.91;5024608;28;20398;-69
2022/08/25 01:52:55;;;;;;;25.17;21.85;;;;;;;19.63;87.70;101540.25;5025755;28;20028;-69
2022/08/25 01:55:20;;;;;;;29.58;22.83;;;;;;;19.58;86.28;101546.59;5024572;28;20025;-68
2022/08/25 01:57:45;;;;;;;27.48;22.40;;;;;;;19.52;86.39;101542.13;5026035;28;20034;-69
2022/08/25 02:00:13;;;;;;;28.42;23.13;;;;;;;19.52;85.84;101538.50;5018279;28;20018;-68
2022/08/25 02:02:39;;;;;;;;;;;;;;;19.64;85.49;101539.13;5005634;28;20030;-69
2022/08/25 02:05:05;;;;;;;28.77;23.48;;;;;;;19.45;86.29;101545.16;5004992;28;19920;-69
2022/08/25 02:07:31;;;;;;;29.60;23.73;;;;;;;19.41;85.44;101535.69;5005365;28;20232;-69
2022/08/25 02:09:56;;;;;;;28.70;23.77;;;;;;;19.38;85.73;101538.19;5004721;28;20029;-69
2022/08/25 02:12:22;;;;;;;29.80;23.20;;;;;;;19.37;86.11;101536.50;5004593;28;20026;-68
2022/08/25 02:14:47;;;;;;;32.17;24.63;;;;;;;19.37;85.35;101539.28;5005634;28;20026;-69
2022/08/25 02:17:13;;;;;;;28.80;24.05;;;;;;;19.31;85.36;101537.56;5009341;28;20072;-68
2022/08/25 02:19:38;;;;;;;30.92;24.73;;;;;;;19.25;85.82;101539.50;5023822;28;20432;-68
2022/08/25 02:22:03;;;;;;;29.20;24.38;;;;;;;19.22;85.27;101537.28;5023995;28;20028;-69
2022/08/25 02:24:29;;;;;;;26.42;22.77;;;;;;;19.17;85.04;101538.09;5022770;28;20021;-68
2022/08/25 02:26:54;;;;;;;29.63;23.80;;;;;;;19.15;85.56;101533.88;5023494;28;20096;-68
2022/08/25 02:29:20;;;;;;;27.35;23.85;;;;;;;19.10;84.85;101531.91;5023114;28;20079;-69
2022/08/25 02:31:45;;;;;;;25.73;21.13;;;;;;;19.10;85.05;101543.06;5024095;28;20052;-68
2022/08/25 02:34:11;;;;;;;29.15;21.10;;;;;;;19.10;85.36;101531.91;5024029;28;20430;-69
2022/08/25 02:36:37;;;;;;;30.35;22.60;;;;;;;19.08;85.05;101528.56;5004431;28;20034;-68
2022/08/25 02:39:06;;;;;;;26.55;21.73;;;;;;;19.06;84.93;101533.59;5003123;28;20033;-68
2022/08/25 02:41:32;;;;;;;25.88;22.77;;;;;;;19.07;85.35;101526.06;5003641;28;20113;-68
2022/08/25 02:43:59;;;;;;;26.02;21.77;;;;;;;19.01;85.94;101528.00;5003762;28;20059;-69
2022/08/25 02:46:25;;;;;;;32.47;23.73;;;;;;;18.98;85.41;101522.13;5003249;28;20487;-68
2022/08/25 02:48:51;;;;;;;27.70;22.65;;;;;;;18.97;85.62;101526.84;5004183;28;20049;-69
2022/08/25 02:51:17;;;;;;;29.50;22.83;;;;;;;18.97;85.01;101531.59;5003634;28;20113;-69
2022/08/25 02:53:44;;;;;;;35.20;23.55;;;;;;;18.92;84.04;101526.81;5001426;28;20404;-68
2022/08/25 02:56:11;;;;;;;32.85;23.42;;;;;;;18.96;85.58;101527.09;5003187;28;20219;-68
2022/08/25 02:58:37;;;;;;;28.42;22.33;;;;;;;18.90;84.93;101524.28;5003178;28;20038;-69
2022/08/25 03:01:03;;;;;;;26.52;23.05;;;;;;;18.85;85.39;101523.44;5003153;28;20018;-68
2022/08/25 03:03:28;;;;;;;32.40;24.10;;;;;;;18.86;85.02;101525.97;5003187;28;20120;-69
2022/08/25 03:05:55;;;;;;;27.58;23.63;;;;;;;18.75;84.73;101517.81;5002795;28;20069;-68
2022/08/25 03:08:20;;;;;;;26.23;22.08;;;;;;;18.65;84.99;101518.53;5002718;28;20127;-68
2022/08/25 03:10:46;;;;;;;25.55;21.85;;;;;;;18.63;85.00;101516.03;5004770;28;20088;-68
2022/08/25 03:13:11;;;;;;;24.15;19.58;;;;;;;18.54;85.29;101512.06;5005004;28;20034;-68
2022/08/25 03:15:37;;;;;;;27.50;21.92;;;;;;;18.50;85.44;101510.09;5022240;28;20025;-68
2022/08/25 03:18:04;;;;;;;26.75;21.65;;;;;;;18.44;85.96;101523.13;5023027;28;20032;-69
2022/08/25 03:20:30;;;;;;;25.42;22.23;;;;;;;18.48;85.64;101515.09;5022505;28;20079;-68
2022/08/25 03:22:55;;;;;;;24.30;21.65;;;;;;;18.41;85.83;101512.56;5021668;28;20033;-69
2022/08/25 03:28:06;;;;;;;24.80;21.27;;;;;;;18.34;85.65;101506.38;5021612;28;20231;-68
2022/08/25 03:30:31;;;;;;;23.92;20.90;;;;;;;18.32;86.05;101503.03;5022530;28;20025;-68
2022/08/25 03:32:56;;;;;;;26.23;21.48;;;;;;;18.25;86.12;101503.25;5022208;28;20511;-68
2022/08/25 03:35:22;;;;;;;23.85;20.02;;;;;;;18.28;86.09;101497.16;5022808;28;20022;-68
2022/08/25 03:37:47;;;;;;;26.95;20.75;;;;;;;18.23;85.97;101499.91;5021506;28;20017;-68
2022/08/25 03:40:15;;;;;;;25.05;20.75;;;;;;;18.21;86.08;101502.13;5022152;28;20021;-69
2022/08/25 03:42:42;;;;;;;27.73;21.05;;;;;;;18.19;85.80;101504.31;5022268;28;20029;-69
2022/08/25 03:45:10;;;;;;;23.57;21.03;;;;;;;18.12;86.63;101498.13;5021804;28;20052;-69
2022/08/25 03:47:37;;;;;;;26.10;20.70;;;;;;;18.10;86.22;101495.63;5017195;28;20393;-68
2022/08/25 03:50:04;;;;;;;28.30;21.15;;;;;;;18.09;85.78;101493.94;5021927;28;20014;-69
2022/08/25 03:52:29;;;;;;;29.63;22.60;;;;;;;18.06;85.85;101486.13;5021840;28;20025;-68
2022/08/25 03:54:54;;;;;;;29.47;22.00;;;;;;;18.02;85.87;101493.34;5021005;28;20268;-69
2022/08/25 03:57:20;;;;;;;25.73;21.75;;;;;;;17.97;85.89;101490.50;5022674;28;20291;-69
2022/08/25 03:59:45;;;;;;;24.85;21.02;;;;;;;17.93;85.71;101491.28;5021587;28;20032;-69
2022/08/25 04:02:11;;;;;;;23.13;20.35;;;;;;;17.95;85.79;101484.38;5020762;28;20048;-68
2022/08/25 04:04:36;;;;;;;22.30;19.95;;;;;;;17.90;85.71;101487.13;5022315;28;20041;-68
2022/08/25 04:07:02;;;;;;;26.90;20.52;;;;;;;17.85;86.94;101485.13;5021147;28;20063;-69
2022/08/25 04:09:27;;;;;;;24.05;20.45;;;;;;;17.84;86.27;101483.47;5021441;28;20029;-68
2022/08/25 04:11:52;;;;;;;24.73;20.40;;;;;;;17.82;86.30;101474.53;5021419;28;20466;-69
2022/08/25 04:14:18;;;;;;;23.57;21.00;;;;;;;17.77;86.08;101481.97;5022241;28;20299;-69
2022/08/25 04:16:44;;;;;;;29.13;20.50;;;;;;;17.77;86.42;101468.94;5021726;28;20268;-68
2022/08/25 04:19:10;;;;;;;23.05;20.05;;;;;;;17.75;85.72;101470.31;5019285;28;20017;-68
2022/08/25 04:21:37;;;;;;;27.08;20.33;;;;;;;17.72;86.12;101468.00;5022004;28;20116;-68
2022/08/25 04:24:04;;;;;;;26.60;20.38;;;;;;;17.68;85.70;101477.97;5020571;28;20242;-69
2022/08/25 04:26:36;;;;;;;24.10;20.15;;;;;;;17.72;85.59;101473.56;5022054;28;20379;-69
2022/08/25 04:29:03;;;;;;;25.20;19.80;;;;;;;17.71;85.81;101474.69;5021787;28;20443;-69
2022/08/25 04:31:30;;;;;;;24.83;20.63;;;;;;;17.73;85.12;101481.66;5021235;28;20045;-68
2022/08/25 04:33:56;;;;;;;25.80;20.83;;;;;;;17.74;84.96;101479.72;5021575;28;20033;-69
2022/08/25 04:36:21;;;;;;;25.08;21.58;;;;;;;17.75;84.69;101476.69;5019785;28;20017;-68
2022/08/25 04:38:48;;;;;;;22.95;19.70;;;;;;;17.75;84.93;101470.31;5000545;28;20407;-69
2022/08/25 04:41:15;;;;;;;25.80;20.40;;;;;;;17.75;83.95;101465.59;5001961;28;20030;-69
2022/08/25 04:43:43;;;;;;;23.52;20.13;;;;;;;17.77;83.72;101470.88;5001651;28;20096;-68
2022/08/25 04:46:13;;;;;;;25.15;19.73;;;;;;;17.74;84.12;101463.91;5001373;28;20156;-69
2022/08/25 04:48:39;;;;;;;26.05;20.75;;;;;;;17.73;84.18;101461.38;5001591;28;20021;-68
2022/08/25 04:51:13;;;;;;;25.05;21.00;;;;;;;17.75;83.29;101464.75;5001922;28;20109;-68
2022/08/25 04:53:40;;;;;;;26.45;20.33;;;;;;;17.76;83.80;101461.69;5000997;28;20030;-69
2022/08/25 04:56:13;;;;;;;29.63;20.58;;;;;;;17.79;83.11;101458.41;5001133;28;20685;-69
2022/08/25 04:58:39;;;;;;;26.02;20.08;;;;;;;17.83;82.87;101464.25;5001665;28;20107;-68
2022/08/25 05:01:07;;;;;;;27.17;20.38;;;;;;;17.82;82.34;101457.03;5001473;28;20116;-69
2022/08/25 05:03:32;;;;;;;;;;;;;;;17.96;82.23;101461.03;5005765;28;20539;-69
2022/08/25 05:05:58;;;;;;;26.58;19.42;;;;;;;17.84;82.35;101452.03;5005185;28;19956;-68
2022/08/25 05:08:23;;;;;;;26.67;20.23;;;;;;;17.83;81.17;101448.41;5004684;28;20033;-69
2022/08/25 05:10:49;;;;;;;22.63;20.00;;;;;;;17.79;81.65;101463.97;5005562;28;20063;-69
2022/08/25 05:13:15;;;;;;;22.75;18.73;;;;;;;17.79;82.63;101469.53;5005579;28;20033;-69
2022/08/25 05:15:49;;;;;;;25.75;19.70;;;;;;;17.75;83.45;101471.13;5004573;28;20156;-69
2022/08/25 05:18:19;;;;;;;23.17;18.80;;;;;;;17.74;84.40;101468.59;5004993;28;20025;-69
2022/08/25 05:20:44;;;;;;;23.63;19.23;;;;;;;17.76;83.47;101477.53;5005487;28;20022;-68
2022/08/25 05:23:10;;;;;;;25.30;18.70;;;;;;;17.76;84.12;101483.94;5003604;28;20514;-68
2022/08/25 05:25:35;;;;;;;24.33;19.38;;;;;;;17.83;82.57;101483.69;5003979;28;20464;-69
2022/08/25 05:28:01;;;;;;;21.80;18.77;;;;;;;17.87;84.02;101490.41;5004837;28;20091;-69
2022/08/25 05:30:26;;;;;;;23.02;18.83;;;;;;;17.93;83.31;101494.91;5011449;28;20060;-68
2022/08/25 05:32:52;;;;;;;21.75;18.67;;;;;;;17.97;83.68;101492.44;5024743;28;20036;-68
2022/08/25 05:35:18;;;;;;;24.55;18.15;;;;;;;18.00;83.66;101495.53;5024610;28;20026;-68
2022/08/25 05:37:44;;;;;;;24.80;18.92;;;;;;;18.09;83.68;101490.31;5023918;28;20028;-68
2022/08/25 05:40:09;;;;;;;20.55;17.50;;;;;;;18.17;82.28;101492.63;5024041;28;20376;-69
2022/08/25 05:42:36;;;;;;;23.35;18.25;;;;;;;18.22;82.19;101497.38;5025108;28;20132;-69
2022/08/25 05:45:02;;;;;;;23.85;18.95;;;;;;;18.28;81.24;101493.53;5023629;28;20218;-69
2022/08/25 05:47:27;;;;;;;21.65;17.92;;;;;;;18.32;82.30;101495.53;5014978;28;20034;-69
2022/08/25 05:49:52;;;;;;;21.63;17.90;;;;;;;18.36;81.22;101495.84;5004526;28;20527;-69
2022/08/25 05:52:19;;;;;;;24.87;19.27;;;;;;;18.44;78.39;101495.31;5004770;28;20077;-69
2022/08/25 05:54:44;;;;;;;23.42;17.92;;;;;;;18.50;79.60;101504.53;5003752;28;20291;-69
2022/08/25 05:57:09;;;;;;;23.77;18.60;;;;;;;18.56;78.43;101500.69;5004196;28;20067;-69
2022/08/25 05:59:35;;;;;;;24.25;17.85;;;;;;;18.67;78.49;101505.22;5005063;28;20084;-69
2022/08/25 06:04:44;;;;;;;24.25;18.02;;;;;;;18.82;78.91;101498.94;5004035;28;20400;-68
2022/08/25 06:07:09;;;;;;;20.55;18.38;;;;;;;18.95;76.52;101495.66;5003434;28;20049;-69
2022/08/25 06:09:39;;;;;;;23.45;17.65;;;;;;;19.06;75.73;101502.97;5003203;28;20117;-67
2022/08/25 06:12:06;;;;;;;22.83;17.48;;;;;;;19.17;75.41;101504.69;5003459;28;20053;-68
2022/08/25 06:14:32;;;;;;;19.73;17.33;;;;;;;19.26;74.15;101502.22;5004339;28;20096;-68
2022/08/25 06:16:59;;;;;;;23.10;16.23;;;;;;;19.38;73.21;101501.97;5003579;28;20489;-67
2022/08/25 06:19:24;;;;;;;22.42;17.00;;;;;;;19.46;73.05;101501.41;5004286;28;20034;-67
2022/08/25 06:21:54;;;;;;;20.58;16.77;;;;;;;19.57;72.71;101497.56;5004001;28;20087;-67
2022/08/25 06:24:19;;;;;;;19.85;16.65;;;;;;;19.66;72.17;101501.50;5023579;28;20025;-67
2022/08/25 06:26:45;;;;;;;21.27;15.48;;;;;;;19.77;71.12;101495.94;5006096;28;20025;-67
2022/08/25 06:29:12;;;;;;;21.27;16.00;;;;;;;19.86;70.45;101500.69;5023086;28;20034;-67
2022/08/25 06:31:38;;;;;;;18.27;14.85;;;;;;;19.93;71.15;101503.22;5023246;28;20185;-67
2022/08/25 06:34:04;;;;;;;18.20;14.32;;;;;;;20.02;70.93;101497.91;5023462;28;20033;-67
2022/08/25 06:36:30;;;;;;;19.70;14.13;;;;;;;20.11;69.70;101499.03;5023331;28;20072;-67
2022/08/25 06:38:55;;;;;;;16.80;13.57;;;;;;;20.19;68.92;101502.09;5018078;28;20049;-67
2022/08/25 06:41:21;;;;;;;20.87;13.27;;;;;;;20.26;69.97;101501.81;5004104;28;20045;-66
2022/08/25 06:43:46;;;;;;;15.68;12.35;;;;;;;20.36;68.86;101498.19;5003326;28;20382;-67
2022/08/25 06:46:14;;;;;;;19.98;12.50;;;;;;;20.45;69.02;101504.88;5003120;28;20495;-67
2022/08/25 06:48:40;;;;;;;15.48;12.07;;;;;;;20.54;68.77;101494.84;5003328;28;20025;-67
2022/08/25 06:51:07;;;;;;;15.20;11.35;;;;;;;20.64;68.73;101499.59;5003838;28;20022;-67
2022/08/25 06:53:33;;;;;;;17.13;11.20;;;;;;;20.75;68.40;101497.59;5002398;28;20128;-67
2022/08/25 06:55:59;;;;;;;15.35;11.60;;;;;;;20.92;67.17;101498.94;5003374;28;20277;-68
2022/08/25 06:58:24;;;;;;;15.50;11.52;;;;;;;21.04;67.30;101497.81;5014150;28;20032;-67
2022/08/25 07:00:50;;;;;;;14.85;11.05;;;;;;;21.15;65.49;101491.88;5023192;28;20395;-66
2022/08/25 07:03:15;;;;;;;17.98;11.55;;;;;;;21.30;62.73;101479.81;5023443;28;20402;-67
2022/08/25 07:05:41;;;;;;;14.95;10.68;;;;;;;21.85;63.65;101490.94;5022936;28;20053;-67
2022/08/25 07:08:06;;;;;;;15.20;9.80;;;;;;;23.21;59.88;101487.09;5021706;28;20029;-67
2022/08/25 07:10:32;;;;;;;14.82;9.13;;;;;;;24.31;56.25;101474.47;5022934;28;20079;-67
2022/08/25 07:12:57;;;;;;;17.30;9.50;;;;;;;24.77;53.83;101482.06;5022800;28;20427;-67
2022/08/25 07:15:22;;;;;;;12.63;8.80;;;;;;;24.44;55.22;101486.09;5017597;28;20030;-67
2022/08/25 07:17:49;;;;;;;16.70;10.20;;;;;;;24.01;55.66;101481.44;5022869;28;20404;-67
2022/08/25 07:20:15;;;;;;;20.60;9.85;;;;;;;23.60;57.91;101475.59;5022692;28;20268;-67
2022/08/25 07:22:41;;;;;;;13.88;9.38;;;;;;;23.65;57.75;101477.53;5021659;28;20120;-68
2022/08/25 07:25:07;;;;;;;15.63;8.85;;;;;;;23.84;56.93;101474.72;5021426;28;20121;-68
2022/08/25 07:27:33;;;;;;;14.10;9.18;;;;;;;23.66;56.83;101482.00;5022714;28;20047;-68
2022/08/25 07:29:58;;;;;;;16.83;8.75;;;;;;;23.52;57.52;101474.34;5022552;28;20391;-68
2022/08/25 07:32:23;;;;;;;15.38;9.27;;;;;;;23.38;58.47;101478.19;5017648;28;20030;-68
2022/08/25 07:37:37;;;;;;;14.30;8.20;;;;;;;23.80;56.98;101483.75;5021154;28;20063;-67
2022/08/25 07:40:03;;;;;;;12.85;8.25;;;;;;;23.68;57.48;101480.56;5022395;28;20100;-67
2022/08/25 07:42:28;;;;;;;14.80;7.70;;;;;;;23.60;57.21;101477.59;5021948;28;20029;-67
2022/08/25 07:44:54;;;;;;;12.45;7.47;;;;;;;23.53;56.35;101476.00;5021665;28;20080;-68
2022/08/25 07:47:19;;;;;;;12.88;7.38;;;;;;;23.53;57.07;101477.97;5022419;28;20035;-67
2022/08/25 07:49:44;;;;;;;14.55;7.30;;;;;;;23.50;57.42;101478.56;5017276;28;20435;-68
2022/08/25 07:52:09;;;;;;;13.60;7.60;;;;;;;23.50;58.17;101475.75;5021420;28;20057;-68
2022/08/25 07:54:35;;;;;;;10.40;7.20;;;;;;;23.55;57.95;101478.50;5021514;28;20026;-67
2022/08/25 07:57:06;;;;;;;11.90;7.57;;;;;;;23.57;58.15;101487.44;5022111;28;20809;-68
2022/08/25 07:59:32;;;;;;;11.75;7.13;;;;;;;23.58;59.43;101477.91;5022287;28;20033;-67
2022/08/25 08:01:57;;;;;;;11.70;6.90;;;;;;;23.68;57.47;101474.13;5021648;28;20464;-68
2022/08/25 08:04:23;;;;;;;12.18;7.28;;;;;;;23.73;58.19;101462.84;5021688;28;20036;-68
2022/08/25 08:06:48;;;;;;;11.43;6.53;;;;;;;23.77;58.35;101463.88;5007708;28;20053;-67
2022/08/25 08:09:14;;;;;;;15.65;7.03;;;;;;;23.81;56.90;101471.38;5001027;28;20044;-68
2022/08/25 08:11:43;;;;;;;9.23;5.55;;;;;;;23.90;57.20;101468.72;5002281;28;20243;-67
2022/08/25 08:14:10;;;;;;;9.27;6.18;;;;;;;23.99;56.43;101464.09;5001823;28;20301;-65
2022/08/25 08:16:36;;;;;;;11.95;6.47;;;;;;;24.05;57.42;101460.06;5001818;28;20026;-68
2022/08/25 08:19:02;;;;;;;12.93;6.35;;;;;;;24.11;56.46;101469.22;5001908;28;20022;-67
2022/08/25 08:21:31;;;;;;;13.52;6.53;;;;;;;24.18;58.40;101457.56;5002126;28;20028;-67
2022/08/25 08:23:57;;;;;;;13.00;7.40;;;;;;;24.30;56.42;101463.56;5013833;28;20554;-67
2022/08/25 08:26:22;;;;;;;12.20;6.10;;;;;;;24.44;56.93;101452.41;5021475;28;20065;-68
2022/08/25 08:28:49;;;;;;;10.57;5.57;;;;;;;24.53;54.82;101458.94;5022123;28;20096;-67
2022/08/25 08:31:18;;;;;;;10.53;6.00;;;;;;;24.69;53.08;101463.13;5020950;28;20053;-67
2022/08/25 08:33:43;;;;;;;13.02;5.75;;;;;;;24.80;53.74;101463.75;5021581;28;20033;-67
2022/08/25 08:36:11;;;;;;;9.52;5.28;;;;;;;24.95;54.19;101460.63;5021008;28;20356;-67
2022/08/25 08:38:39;;;;;;;10.70;5.15;;;;;;;25.08;53.78;101459.81;5020289;28;20032;-67
2022/08/25 08:44:26;;;;;;;11.18;5.20;;;;;;;25.30;53.38;101452.63;5020633;28;20106;-67
2022/08/25 08:47:16;;;;;;;8.50;5.00;;;;;;;25.44;53.55;101447.75;5021236;28;20640;-68
2022/08/25 08:49:50;;;;;;;8.45;4.90;;;;;;;25.66;51.95;101455.44;5021126;28;20036;-67
2022/08/25 08:52:21;;;;;;;8.73;4.68;;;;;;;25.79;51.36;101457.38;5020627;28;20063;-67
2022/08/25 08:54:59;;;;;;;8.10;4.55;;;;;;;26.01;52.45;101458.56;5021782;28;20026;-67
2022/08/25 08:57:27;;;;;;;10.35;4.85;;;;;;;26.21;49.64;101451.56;5021099;28;20079;-67
2022/08/25 08:59:59;;;;;;;9.23;4.50;;;;;;;26.39;49.10;101454.13;5002870;28;20038;-68
2022/08/25 09:02:32;;;;;;;10.40;4.78;;;;;;;26.83;49.91;101443.94;5001178;28;20029;-67
2022/08/25 09:05:02;;;;;;;8.02;4.40;;;;;;;28.54;45.74;101439.84;5000555;28;20029;-67
2022/08/25 09:07:38;;;;;;;7.53;4.13;;;;;;;30.73;41.37;101456.47;5001002;28;20087;-68
2022/08/25 09:10:04;;;;;;;8.00;4.22;;;;;;;32.94;36.36;101462.25;5001516;28;20029;-67
2022/08/25 09:12:40;;;;;;;9.73;4.43;;;;;;;34.58;34.11;101463.00;5000964;28;20383;-68
2022/08/25 09:15:17;;;;;;;10.80;4.40;;;;;;;35.71;30.62;101456.63;5001004;28;20048;-68
2022/08/25 09:18:09;;;;;;;8.30;4.40;;;;;;;36.78;29.58;101457.00;5001030;28;20404;-67
2022/08/25 09:20:37;;;;;;;11.10;4.50;;;;;;;37.03;28.81;101457.25;5001373;28;20413;-65
2022/08/25 09:23:32;;;;;;;9.70;4.15;;;;;;;37.94;31.14;101460.25;5000400;28;20033;-65
2022/08/25 09:26:16;;;;;;;6.72;4.07;;;;;;;38.87;25.44;101452.66;5000931;28;20032;-65
2022/08/25 09:28:45;;;;;;;10.18;4.30;;;;;;;39.02;26.27;101460.03;5000991;28;20032;-65
2022/08/25 09:31:20;;;;;;;8.20;4.03;;;;;;;39.22;26.50;101453.88;5001131;28;20037;-65
2022/08/25 09:33:45;;;;;;;6.97;3.90;;;;;;;40.02;23.22;101451.13;5001399;28;20029;-66
2022/08/25 09:36:10;;;;;;;8.52;3.70;;;;;;;40.14;23.69;101447.78;5000685;28;20258;-66
2022/08/25 09:38:36;;;;;;;8.20;4.23;;;;;;;41.23;22.16;101446.53;5000825;28;20168;-66
2022/08/25 09:41:02;;;;;;;12.48;4.70;;;;;;;41.11;22.29;101444.19;5000040;28;21011;-66
2022/08/25 09:43:52;;;;;;;8.48;3.70;;;;;;;41.32;23.36;101441.09;5001099;28;20025;-65
2022/08/25 09:46:27;;;;;;;9.25;4.07;;;;;;;41.62;22.41;101434.59;5001186;28;20030;-65
2022/08/25 09:48:54;;;;;;;10.80;4.45;;;;;;;41.60;20.67;101437.06;5003393;28;20030;-65
2022/08/25 09:51:23;;;;;;;11.45;4.40;;;;;;;42.34;20.60;101436.50;5005079;28;20105;-65
2022/08/25 09:53:55;;;;;;;8.63;3.90;;;;;;;42.12;21.90;101435.97;5004197;28;20037;-64
2022/08/25 09:56:24;;;;;;;9.23;4.18;;;;;;;42.27;20.37;101442.38;5004344;28;20029;-66
2022/08/25 09:58:50;;;;;;;5.93;3.45;;;;;;;42.64;20.16;101433.56;5004759;28;20026;-65
2022/08/25 10:01:17;;;;;;;6.70;3.42;;;;;;;42.14;19.56;101431.41;5004492;28;20024;-65
2022/08/25 10:03:58;;;;;;;7.22;3.15;;;;;;;42.65;20.96;101423.63;5004645;28;20480;-65
2022/08/25 10:06:25;;;;;;;8.20;3.70;;;;;;;42.16;19.09;101425.19;5004245;28;20047;-65
2022/08/25 10:08:57;;;;;;;7.40;3.30;;;;;;;42.62;20.45;101412.94;5003451;28;20053;-65
2022/08/25 10:11:42;;;;;;;7.55;3.92;;;;;;;43.16;20.65;101412.81;5003691;28;20240;-64
2022/08/25 10:14:35;;;;;;;8.57;3.20;;;;;;;42.60;21.77;101403.06;5004271;28;20046;-64
2022/08/25 10:17:30;;;;;;;9.27;3.60;;;;;;;42.52;22.22;101408.13;5004293;28;20026;-64
2022/08/25 10:20:23;;;;;;;7.60;3.20;;;;;;;42.92;21.35;101403.31;5001574;28;20109;-65
2022/08/25 10:22:49;;;;;;;11.27;3.90;;;;;;;42.82;19.59;101395.66;5003587;28;20028;-65
2022/08/25 10:25:20;;;;;;;9.23;3.60;;;;;;;42.90;19.50;101388.50;5003027;28;20486;-66
2022/08/25 10:28:11;;;;;;;8.38;3.47;;;;;;;43.40;20.46;101402.00;5004345;28;20046;-65
2022/08/25 10:31:01;;;;;;;8.45;3.80;;;;;;;44.11;19.62;101393.84;5004063;28;20083;-66
2022/08/25 10:33:48;;;;;;;8.85;3.22;;;;;;;44.01;19.29;101389.13;5004073;28;20025;-66
2022/08/25 10:36:21;;;;;;;10.38;2.90;;;;;;;43.91;18.52;101381.53;5003651;28;20580;-66
2022/08/25 10:38:59;;;;;;;6.72;2.70;;;;;;;43.63;18.97;101377.16;5002652;28;20026;-65
2022/08/25 10:41:43;;;;;;;7.15;3.08;;;;;;;42.60;20.28;101369.25;5003790;28;20034;-66
2022/08/25 10:47:56;;;;;;;6.25;3.00;;;;;;;41.58;20.91;101364.59;5003221;28;20499;-67
2022/08/25 10:50:43;;;;;;;5.63;3.15;;;;;;;41.88;21.84;101360.91;4942072;29;20183;-67
2022/08/25 10:53:28;;;;;;;8.05;3.45;;;;;;;41.83;20.50;101355.63;4941739;29;20429;-66
2022/08/25 10:56:08;;;;;;;5.93;3.00;;;;;;;41.82;20.21;101347.38;4988708;28;20038;-67
2022/08/25 10:58:39;;;;;;;7.70;2.92;;;;;;;40.98;20.75;101351.72;5005282;28;20040;-66
2022/08/25 11:01:34;;;;;;;7.55;3.60;;;;;;;40.10;22.08;101349.19;5003836;28;20025;-66
2022/08/25 11:04:07;;;;;;;9.30;3.40;;;;;;;38.53;22.64;101338.22;5003382;28;20034;-66
2022/08/25 11:06:48;;;;;;;5.43;3.05;;;;;;;37.91;23.88;101338.56;5002577;28;20038;-67
2022/08/25 11:09:18;;;;;;;7.85;3.10;;;;;;;37.64;24.63;101327.41;5003596;28;20033;-66
2022/08/25 11:12:03;;;;;;;8.70;3.50;;;;;;;37.33;24.84;101336.69;5003093;28;20036;-66
2022/08/25 11:14:48;;;;;;;6.53;2.88;;;;;;;37.22;25.14;101332.97;5003408;28;20121;-66
2022/08/25 11:17:23;;;;;;;6.05;3.03;;;;;;;36.72;26.00;101333.47;5002632;28;20022;-65
2022/08/25 11:19:52;;;;;;;6.03;3.38;;;;;;;36.44;25.88;101333.25;5003262;28;20475;-66
2022/08/25 11:22:39;;;;;;;5.55;3.25;;;;;;;36.44;27.33;101325.47;5002868;28;20030;-65
2022/08/25 11:25:13;;;;;;;8.80;3.05;;;;;;;36.20;27.53;101315.47;5002663;28;20092;-66
2022/08/25 11:27:53;;;;;;;6.93;2.78;;;;;;;35.96;26.32;101319.72;4985442;28;20468;-65
2022/08/25 11:30:19;;;;;;;7.20;2.80;;;;;;;35.75;26.66;101313.78;5003605;28;20033;-65
2022/08/25 11:32:48;;;;;;;6.05;3.00;;;;;;;35.39;26.67;101309.66;5002296;28;20385;-66
2022/08/25 11:35:17;;;;;;;6.15;2.60;;;;;;;35.05;28.29;101310.44;5002808;28;20036;-66
2022/08/25 11:38:04;;;;;;;6.03;2.60;;;;;;;35.18;29.11;101308.19;5002154;28;20030;-65